createdAt,value
2022-11-17T00:00:29.416Z,30.73
2022-11-17T00:03:32.936Z,31.73
2022-11-17T00:06:36.529Z,28.80
2022-11-17T00:09:40.129Z,31.90
2022-11-17T00:13:02.228Z,33.03
2022-11-17T00:16:05.832Z,33.30
2022-11-17T00:19:27.735Z,34.05
2022-11-17T00:22:32.507Z,27.60
2022-11-17T00:25:35.792Z,29.43
2022-11-17T00:28:40.472Z,30.95
2022-11-17T00:32:02.546Z,29.42
2022-11-17T00:35:06.670Z,30.65
2022-11-17T00:38:15.948Z,29.77
2022-11-17T00:41:19.275Z,31.90
2022-11-17T00:44:22.550Z,28.55
2022-11-17T00:47:25.873Z,29.65
2022-11-17T00:50:29.246Z,27.00
2022-11-17T00:53:32.833Z,24.90
2022-11-17T00:56:36.509Z,24.47
2022-11-17T00:59:39.855Z,26.38
2022-11-17T01:02:43.292Z,25.35
2022-11-17T01:05:46.794Z,23.20
2022-11-17T01:08:50.086Z,24.20
2022-11-17T01:11:54.061Z,23.50
2022-11-17T01:14:57.417Z,24.17
2022-11-17T01:18:00.861Z,23.55
2022-11-17T01:21:13.054Z,21.30
2022-11-17T01:24:17.381Z,25.20
2022-11-17T01:27:20.789Z,23.77
2022-11-17T01:30:24.175Z,23.60
2022-11-17T01:33:27.828Z,24.05
2022-11-17T01:37:00.735Z,23.60
2022-11-17T01:40:04.695Z,24.67
2022-11-17T01:43:11.840Z,24.43
2022-11-17T01:46:24.044Z,25.00
2022-11-17T01:49:29.213Z,24.63
2022-11-17T01:52:34.802Z,25.55
2022-11-17T01:55:49.105Z,22.90
2022-11-17T01:58:59.697Z,24.67
2022-11-17T02:02:03.067Z,24.40
2022-11-17T02:05:12.249Z,26.65
2022-11-17T02:08:16.228Z,26.65
2022-11-17T02:11:21.811Z,28.23
2022-11-17T02:14:25.172Z,26.70
2022-11-17T02:17:36.727Z,25.05
2022-11-17T02:20:55.161Z,23.27
2022-11-17T02:24:17.351Z,23.52
2022-11-17T02:27:29.575Z,22.70
2022-11-17T02:30:52.852Z,21.90
2022-11-17T02:34:04.776Z,25.60
2022-11-17T02:37:24.989Z,22.50
2022-11-17T02:40:44.831Z,25.50
2022-11-17T02:44:25.622Z,23.93
2022-11-17T02:47:32.930Z,25.63
2022-11-17T02:50:37.220Z,25.08
2022-11-17T02:53:41.462Z,23.73
2022-11-17T02:56:45.177Z,22.73
2022-11-17T02:59:49.927Z,22.60
2022-11-17T03:03:27.483Z,23.03
2022-11-17T03:06:48.963Z,20.05
2022-11-17T03:10:27.190Z,22.80
2022-11-17T03:13:40.616Z,23.70
2022-11-17T03:17:00.647Z,23.77
2022-11-17T03:20:23.463Z,22.30
2022-11-17T03:23:39.478Z,22.50
2022-11-17T03:26:51.993Z,22.92
2022-11-17T03:30:02.889Z,23.27
2022-11-17T03:33:12.376Z,23.77
2022-11-17T03:36:29.916Z,25.07
2022-11-17T03:39:41.062Z,23.27
2022-11-17T03:42:52.647Z,24.55
2022-11-17T03:46:02.846Z,28.05
2022-11-17T03:49:22.748Z,25.83
2022-11-17T03:52:29.642Z,26.70
2022-11-17T03:56:10.963Z,26.05
2022-11-17T03:59:35.598Z,24.25
2022-11-17T04:02:42.037Z,26.30
2022-11-17T04:05:45.512Z,24.37
2022-11-17T04:08:48.858Z,24.57
2022-11-17T04:12:10.477Z,26.00
2022-11-17T04:15:32.688Z,25.23
2022-11-17T04:18:36.105Z,25.52
2022-11-17T04:21:39.586Z,24.47
2022-11-17T04:24:42.845Z,25.20
2022-11-17T04:28:04.502Z,24.52
2022-11-17T04:31:22.775Z,26.40
2022-11-17T04:34:26.093Z,23.35
2022-11-17T04:37:29.390Z,24.87
2022-11-17T04:40:53.041Z,26.20
2022-11-17T04:43:57.016Z,27.50
2022-11-17T04:47:03.118Z,29.20
2022-11-17T04:50:07.140Z,27.15
2022-11-17T04:53:10.440Z,29.07
2022-11-17T04:56:14.209Z,27.93
2022-11-17T04:59:17.746Z,27.73
2022-11-17T05:02:21.059Z,27.60
2022-11-17T05:05:24.390Z,27.50
2022-11-17T05:08:27.722Z,26.30
2022-11-17T05:11:50.406Z,25.70
2022-11-17T05:14:53.755Z,27.42
2022-11-17T05:17:57.020Z,27.48
2022-11-17T05:21:07.439Z,26.25
2022-11-17T05:24:10.899Z,29.23
2022-11-17T05:27:14.456Z,25.20
2022-11-17T05:30:17.932Z,25.25
2022-11-17T05:33:21.268Z,27.38
2022-11-17T05:36:26.461Z,25.27
2022-11-17T05:39:29.744Z,22.87
2022-11-17T05:42:34.118Z,23.20
2022-11-17T05:45:37.461Z,20.35
2022-11-17T05:48:41.090Z,22.58
2022-11-17T05:51:47.426Z,17.67
2022-11-17T05:54:53.239Z,18.93
2022-11-17T05:58:00.363Z,19.13
2022-11-17T06:01:04.979Z,20.58
2022-11-17T06:04:09.024Z,20.95
2022-11-17T06:07:12.610Z,21.05
2022-11-17T06:10:16.022Z,20.77
2022-11-17T06:13:26.007Z,19.00
2022-11-17T06:16:34.269Z,19.35
2022-11-17T06:19:44.250Z,24.02
2022-11-17T06:22:48.840Z,27.40
2022-11-17T06:25:52.607Z,27.00
2022-11-17T06:28:57.284Z,21.17
2022-11-17T06:32:01.394Z,21.45
2022-11-17T06:35:08.294Z,19.67
2022-11-17T06:38:11.611Z,15.23
2022-11-17T06:41:15.041Z,13.60
2022-11-17T06:44:18.477Z,11.60
2022-11-17T06:47:21.819Z,12.32
2022-11-17T06:50:25.603Z,15.05
2022-11-17T06:53:29.240Z,12.88
2022-11-17T06:56:32.798Z,11.10
2022-11-17T06:59:36.203Z,10.30
2022-11-17T07:02:39.679Z,10.10
2022-11-17T07:05:43.145Z,8.98
2022-11-17T07:08:46.915Z,9.43
2022-11-17T07:11:50.352Z,8.33
2022-11-17T07:14:54.070Z,9.43
2022-11-17T07:17:58.698Z,8.05
2022-11-17T07:21:04.240Z,7.80
2022-11-17T07:24:08.887Z,10.98
2022-11-17T07:27:12.966Z,8.73
2022-11-17T07:30:17.323Z,9.30
2022-11-17T07:33:22.180Z,7.38
2022-11-17T07:36:26.045Z,6.95
2022-11-17T07:39:30.048Z,9.05
2022-11-17T07:42:34.679Z,7.23
2022-11-17T07:45:41.168Z,7.57
2022-11-17T07:48:45.835Z,6.95
2022-11-17T07:51:49.724Z,8.02
2022-11-17T07:54:53.499Z,11.05
2022-11-17T07:57:59.110Z,7.37
2022-11-17T08:01:17.073Z,8.17
2022-11-17T08:04:20.489Z,7.93
2022-11-17T08:07:24.102Z,9.38
2022-11-17T08:10:31.359Z,7.45
2022-11-17T08:13:35.664Z,7.60
2022-11-17T08:16:39.230Z,7.77
2022-11-17T08:19:42.710Z,6.75
2022-11-17T08:22:46.725Z,6.53
2022-11-17T08:25:50.434Z,7.43
2022-11-17T08:28:58.428Z,6.20
2022-11-17T08:32:02.370Z,6.20
2022-11-17T08:35:07.171Z,5.63
2022-11-17T08:38:15.520Z,8.35
2022-11-17T08:41:20.216Z,7.70
2022-11-17T08:44:23.879Z,9.30
2022-11-17T08:47:27.478Z,7.23
2022-11-17T08:50:31.110Z,7.93
2022-11-17T08:53:35.341Z,9.52
2022-11-17T08:56:38.753Z,9.35
2022-11-17T08:59:42.251Z,9.73
2022-11-17T09:02:46.278Z,7.57
2022-11-17T09:05:50.200Z,8.38
2022-11-17T09:08:55.527Z,6.57
2022-11-17T09:12:00.497Z,6.90
2022-11-17T09:15:05.546Z,8.00
2022-11-17T09:18:09.185Z,6.70
2022-11-17T09:21:15.632Z,5.35
2022-11-17T09:24:19.311Z,6.93
2022-11-17T09:27:22.844Z,5.55
2022-11-17T09:30:26.929Z,5.70
2022-11-17T09:33:30.789Z,4.87
2022-11-17T09:36:34.246Z,4.88
2022-11-17T09:39:37.704Z,5.90
2022-11-17T09:42:41.366Z,5.05
2022-11-17T09:45:47.037Z,4.47
2022-11-17T09:49:01.774Z,3.87
2022-11-17T09:52:13.402Z,4.32
2022-11-17T09:55:41.369Z,4.18
2022-11-17T09:58:53.853Z,6.07
2022-11-17T10:01:57.979Z,5.80
2022-11-17T10:05:02.160Z,4.23
2022-11-17T10:08:15.146Z,5.40
2022-11-17T10:11:33.985Z,5.13
2022-11-17T10:14:39.873Z,6.32
2022-11-17T10:17:43.227Z,5.23
2022-11-17T10:20:47.286Z,5.67
2022-11-17T10:23:59.340Z,4.45
2022-11-17T10:27:15.508Z,6.00
2022-11-17T10:30:23.852Z,5.50
2022-11-17T10:33:48.256Z,5.37
2022-11-17T10:36:51.768Z,4.57
2022-11-17T10:40:25.884Z,4.72
2022-11-17T10:43:37.324Z,4.88
2022-11-17T10:47:01.998Z,5.85
2022-11-17T10:50:30.740Z,5.57
2022-11-17T10:54:10.693Z,7.77
2022-11-17T10:57:32.587Z,6.05
2022-11-17T11:00:40.133Z,6.35
2022-11-17T11:03:52.694Z,6.60
2022-11-17T11:07:22.798Z,4.70
2022-11-17T11:10:44.890Z,6.23
2022-11-17T11:14:19.521Z,4.93
2022-11-17T11:17:34.767Z,4.38
2022-11-17T11:21:09.172Z,4.88
2022-11-17T11:24:27.651Z,5.40
2022-11-17T11:27:49.159Z,5.57
2022-11-17T11:31:24.561Z,4.78
2022-11-17T11:35:06.341Z,6.70
2022-11-17T11:38:44.190Z,5.25
2022-11-17T11:42:14.893Z,3.57
2022-11-17T11:45:33.942Z,3.13
2022-11-17T11:48:42.553Z,4.55
2022-11-17T11:51:50.452Z,9.10
2022-11-17T11:55:02.161Z,13.80
2022-11-17T11:58:14.810Z,8.80
2022-11-17T12:01:20.693Z,7.13
2022-11-17T12:04:39.055Z,13.73
2022-11-17T12:08:20.891Z,9.00
2022-11-17T12:11:43.368Z,5.72
2022-11-17T12:15:10.353Z,6.53
2022-11-17T12:18:20.153Z,3.57
2022-11-17T12:21:28.996Z,3.88
2022-11-17T12:24:41.858Z,4.20
2022-11-17T12:27:53.475Z,4.55
2022-11-17T12:31:09.466Z,3.65
2022-11-17T12:34:33.817Z,4.25
2022-11-17T12:37:39.146Z,4.17
2022-11-17T12:40:47.655Z,6.53
2022-11-17T12:43:54.073Z,6.07
2022-11-17T12:47:25.539Z,5.35
2022-11-17T12:50:40.268Z,3.97
2022-11-17T12:54:15.918Z,3.07
2022-11-17T12:57:29.107Z,3.27
2022-11-17T13:00:42.918Z,6.63
2022-11-17T13:04:01.508Z,5.07
2022-11-17T13:07:08.480Z,6.97
2022-11-17T13:10:30.160Z,3.80
2022-11-17T13:13:37.045Z,4.57
2022-11-17T13:16:49.542Z,7.32
2022-11-17T13:20:01.582Z,7.00
2022-11-17T13:23:14.376Z,5.47
2022-11-17T13:26:22.755Z,5.13
2022-11-17T13:29:26.815Z,4.13
2022-11-17T13:32:33.948Z,3.65
2022-11-17T13:35:41.981Z,7.03
2022-11-17T13:38:51.079Z,7.50
2022-11-17T13:41:58.744Z,10.80
2022-11-17T13:45:06.864Z,10.67
2022-11-17T13:48:40.332Z,10.82
2022-11-17T13:51:47.673Z,10.02
2022-11-17T13:54:57.086Z,6.38
2022-11-17T13:58:26.251Z,17.20
2022-11-17T14:01:33.289Z,4.10
2022-11-17T14:04:36.992Z,3.67
2022-11-17T14:07:41.798Z,4.68
2022-11-17T14:10:46.232Z,7.10
2022-11-17T14:14:01.292Z,6.80
2022-11-17T14:17:20.414Z,7.83
2022-11-17T14:20:31.067Z,5.88
2022-11-17T14:23:35.168Z,6.47
2022-11-17T14:26:44.806Z,5.05
2022-11-17T14:29:48.536Z,7.73
2022-11-17T14:32:52.817Z,8.90
2022-11-17T14:36:00.737Z,8.63
2022-11-17T14:39:15.918Z,11.05
2022-11-17T14:42:20.217Z,9.75
2022-11-17T14:45:23.761Z,5.23
2022-11-17T14:48:27.210Z,5.50
2022-11-17T14:51:31.128Z,5.03
2022-11-17T14:54:34.673Z,10.40
2022-11-17T14:57:38.383Z,10.05
2022-11-17T15:00:42.205Z,9.27
2022-11-17T15:03:46.715Z,8.90
2022-11-17T15:06:50.566Z,7.95
2022-11-17T15:09:55.162Z,5.90
2022-11-17T15:13:01.424Z,11.40
2022-11-17T15:16:07.921Z,16.00
2022-11-17T15:19:14.629Z,16.43
2022-11-17T15:22:18.414Z,11.70
2022-11-17T15:25:21.861Z,11.13
2022-11-17T15:28:29.094Z,5.85
2022-11-17T15:31:34.034Z,8.07
2022-11-17T15:34:37.541Z,10.77
2022-11-17T15:37:41.129Z,12.02
2022-11-17T15:40:44.804Z,9.90
2022-11-17T15:43:48.288Z,8.52
2022-11-17T15:46:51.766Z,6.87
2022-11-17T15:49:58.610Z,8.67
2022-11-17T15:53:04.744Z,6.82
2022-11-17T15:56:16.749Z,10.90
2022-11-17T15:59:20.422Z,13.73
2022-11-17T16:02:24.183Z,10.27
2022-11-17T16:05:27.684Z,8.73
2022-11-17T16:08:32.410Z,7.90
2022-11-17T16:11:36.913Z,5.82
2022-11-17T16:14:40.343Z,9.57
2022-11-17T16:17:43.762Z,8.67
2022-11-17T16:20:47.265Z,10.37
2022-11-17T16:23:54.714Z,11.73
2022-11-17T16:26:58.114Z,11.85
2022-11-17T16:30:01.602Z,10.70
2022-11-17T16:33:11.684Z,7.77
2022-11-17T16:36:15.566Z,8.50
2022-11-17T16:39:19.972Z,5.85
2022-11-17T16:42:23.537Z,6.45
2022-11-17T16:45:27.052Z,5.40
2022-11-17T16:48:34.387Z,6.70
2022-11-17T16:51:38.182Z,7.10
2022-11-17T16:54:42.919Z,11.02
2022-11-17T16:57:47.559Z,7.28
2022-11-17T17:00:50.981Z,5.85
2022-11-17T17:04:02.081Z,5.90
2022-11-17T17:07:06.058Z,6.37
2022-11-17T17:10:09.862Z,8.90
2022-11-17T17:13:13.383Z,8.15
2022-11-17T17:16:18.887Z,9.40
2022-11-17T17:19:23.419Z,13.30
2022-11-17T17:22:27.088Z,12.57
2022-11-17T17:25:30.661Z,14.63
2022-11-17T17:28:35.976Z,9.38
2022-11-17T17:31:41.308Z,10.07
2022-11-17T17:34:44.872Z,9.80
2022-11-17T17:37:48.290Z,11.57
2022-11-17T17:40:51.715Z,9.93
2022-11-17T17:44:00.370Z,10.50
2022-11-17T17:47:04.115Z,13.55
2022-11-17T17:50:08.101Z,15.17
2022-11-17T17:53:11.574Z,13.20
2022-11-17T17:56:16.250Z,8.65
2022-11-17T17:59:20.351Z,10.38
2022-11-17T18:02:24.005Z,9.52
2022-11-17T18:05:28.434Z,8.03
2022-11-17T18:08:35.674Z,9.70
2022-11-17T18:11:45.933Z,7.40
2022-11-17T18:14:50.673Z,6.78
2022-11-17T18:17:54.315Z,6.05
2022-11-17T18:21:10.043Z,6.57
2022-11-17T18:24:14.058Z,5.90
2022-11-17T18:27:17.434Z,6.07
2022-11-17T18:30:21.297Z,7.88
2022-11-17T18:33:24.923Z,8.18
2022-11-17T18:36:29.591Z,10.80
2022-11-17T18:39:33.605Z,11.07
2022-11-17T18:42:37.184Z,9.00
2022-11-17T18:45:40.776Z,11.60
2022-11-17T18:48:46.763Z,12.15
2022-11-17T18:51:50.658Z,9.83
2022-11-17T18:54:54.243Z,12.43
2022-11-17T18:57:58.069Z,9.45
2022-11-17T19:01:09.042Z,14.60
2022-11-17T19:04:14.339Z,13.45
2022-11-17T19:07:18.001Z,8.47
2022-11-17T19:10:21.708Z,6.50
2022-11-17T19:13:26.336Z,7.05
2022-11-17T19:16:30.333Z,7.25
2022-11-17T19:19:33.652Z,13.07
2022-11-17T19:22:37.305Z,9.97
2022-11-17T19:25:42.435Z,10.73
2022-11-17T19:28:46.713Z,10.35
2022-11-17T19:31:52.509Z,8.32
2022-11-17T19:35:03.584Z,9.50
2022-11-17T19:38:14.559Z,8.77
2022-11-17T19:41:21.040Z,14.60
2022-11-17T19:44:24.746Z,8.73
2022-11-17T19:47:28.176Z,7.75
2022-11-17T19:50:33.797Z,9.55
2022-11-17T19:53:37.192Z,8.30
2022-11-17T19:56:40.864Z,7.82
2022-11-17T19:59:44.518Z,7.72
2022-11-17T20:02:48.257Z,8.27
2022-11-17T20:05:51.882Z,9.73
2022-11-17T20:08:57.537Z,9.33
2022-11-17T20:12:01.136Z,11.17
2022-11-17T20:15:06.208Z,10.25
2022-11-17T20:18:09.874Z,12.85
2022-11-17T20:21:14.141Z,10.65
2022-11-17T20:24:17.847Z,11.63
2022-11-17T20:27:21.554Z,11.00
2022-11-17T20:30:26.382Z,10.50
2022-11-17T20:33:30.606Z,11.15
2022-11-17T20:36:35.632Z,17.63
2022-11-17T20:39:39.523Z,14.43
2022-11-17T20:42:43.209Z,11.23
2022-11-17T20:45:50.307Z,14.25
2022-11-17T20:48:54.044Z,15.23
2022-11-17T20:51:57.620Z,14.68
2022-11-17T20:55:01.119Z,13.80
2022-11-17T20:58:04.826Z,10.60
2022-11-17T21:01:17.175Z,16.48
2022-11-17T21:04:21.127Z,15.18
2022-11-17T21:07:24.907Z,16.85
2022-11-17T21:10:28.602Z,14.03
2022-11-17T21:13:34.204Z,11.07
2022-11-17T21:16:40.121Z,11.18
2022-11-17T21:19:44.266Z,10.48
2022-11-17T21:22:47.647Z,11.75
2022-11-17T21:25:51.051Z,11.30
2022-11-17T21:28:54.587Z,9.40
2022-11-17T21:31:58.016Z,12.05
2022-11-17T21:35:01.489Z,11.05
2022-11-17T21:38:04.895Z,9.75
2022-11-17T21:41:13.086Z,7.83
2022-11-17T21:44:16.950Z,10.47
2022-11-17T21:47:21.677Z,9.77
2022-11-17T21:50:25.104Z,6.90
2022-11-17T21:53:29.939Z,11.93
2022-11-17T21:56:33.960Z,12.30
2022-11-17T21:59:37.418Z,11.93
2022-11-17T22:02:40.775Z,10.35
2022-11-17T22:05:44.126Z,10.27
2022-11-17T22:08:48.050Z,12.30
2022-11-17T22:11:52.086Z,12.70
2022-11-17T22:14:55.451Z,11.10
2022-11-17T22:17:58.923Z,8.40
2022-11-17T22:21:02.813Z,10.25
2022-11-17T22:24:07.810Z,9.88
2022-11-17T22:27:11.226Z,7.80
2022-11-17T22:30:15.014Z,8.33
2022-11-17T22:33:18.937Z,8.60
2022-11-17T22:36:22.371Z,11.02
2022-11-17T22:39:25.767Z,11.55
2022-11-17T22:42:29.179Z,10.43
2022-11-17T22:45:37.011Z,11.20
2022-11-17T22:48:40.341Z,13.77
2022-11-17T22:52:02.071Z,15.43
2022-11-17T22:55:05.909Z,12.80
2022-11-17T22:58:09.444Z,12.13
2022-11-17T23:01:13.074Z,12.87
2022-11-17T23:04:16.635Z,12.27
2022-11-17T23:07:20.015Z,9.73
2022-11-17T23:10:23.432Z,11.55
2022-11-17T23:13:26.827Z,13.30
2022-11-17T23:16:30.834Z,9.23
2022-11-17T23:19:34.486Z,9.50
2022-11-17T23:22:38.074Z,12.13
2022-11-17T23:25:41.570Z,9.80
2022-11-17T23:28:44.869Z,12.27
2022-11-17T23:31:48.172Z,8.00
2022-11-17T23:34:51.606Z,9.35
2022-11-17T23:37:54.995Z,9.65
2022-11-17T23:41:02.775Z,13.25
2022-11-17T23:44:06.256Z,9.37
2022-11-17T23:47:09.610Z,10.38
2022-11-17T23:50:13.025Z,8.75
2022-11-17T23:53:16.649Z,8.27
2022-11-17T23:56:20.751Z,8.73
2022-11-17T23:59:24.181Z,9.13
